Time;durP1;ratioP1;P1;durP2;ratioP2;P2;SDS_P1;SDS_P2;PMS_P1;PMS_P2;Temp;Humidity;BMP_temperature;BMP_pressure;BME280_temperature;BME280_humidity;BME280_pressure;Samples;Min_cycle;Max_cycle;Signal;HPM_P1;HPM_P2
2023/04/07 00:02:43;;;;;;;7.13;5.93;;;;;;;9.77;48.08;99589.47;10422492;28;20741;-72
2023/04/07 00:07:45;;;;;;;7.63;5.63;;;;;;;12.08;43.76;99525.94;10406921;28;20297;-72
2023/04/07 00:12:57;;;;;;;7.57;5.77;;;;;;;8.57;49.01;99518.09;10410377;28;20603;-71
2023/04/07 00:17:58;;;;;;;7.87;5.77;;;;;;;8.77;48.52;99555.81;10411221;28;20199;-71
2023/04/07 00:23:00;;;;;;;7.70;5.90;;;;;;;9.56;48.29;99588.34;10408854;28;20915;-70
2023/04/07 00:28:02;;;;;;;8.10;6.40;;;;;;;9.92;46.86;99515.50;10421235;28;20225;-72
2023/04/07 00:33:04;;;;;;;9.90;6.03;;;;;;;8.74;49.16;99550.81;10420145;28;20228;-71
2023/04/07 00:38:10;;;;;;;7.33;6.13;;;;;;;9.60;47.99;99564.75;10413574;28;20207;-71
2023/04/07 00:43:11;;;;;;;6.10;5.50;;;;;;;10.38;46.83;99527.75;10412223;28;20243;-71
2023/04/07 00:48:13;;;;;;;7.17;6.03;;;;;;;9.90;46.83;99511.34;10419784;28;20223;-71
2023/04/07 00:53:15;;;;;;;6.00;5.40;;;;;;;9.80;47.79;99567.72;10408917;28;20236;-71
2023/04/07 00:58:17;;;;;;;7.13;6.07;;;;;;;10.03;46.07;99474.09;10417585;28;20216;-71
2023/04/07 01:03:34;;;;;;;7.27;5.57;;;;;;;9.42;49.35;99586.50;10413663;28;20242;-71
2023/04/07 01:08:53;;;;;;;6.77;5.70;;;;;;;9.90;48.50;99540.75;10422248;28;20238;-70
2023/04/07 01:13:57;;;;;;;7.23;5.10;;;;;;;10.50;46.77;99493.31;10422695;28;20224;-71
2023/04/07 01:19:07;;;;;;;6.73;5.30;;;;;;;13.10;41.90;99564.34;10432135;28;20211;-71
2023/04/07 01:24:33;;;;;;;5.70;5.10;;;;;;;10.79;45.59;99529.00;10418453;28;20246;-71
2023/04/07 01:29:46;;;;;;;5.83;5.00;;;;;;;12.77;42.94;99560.81;10416943;28;20252;-71
2023/04/07 01:34:49;;;;;;;12.13;7.17;;;;;;;11.58;44.24;99526.09;10411379;28;20904;-71
2023/04/07 01:39:51;;;;;;;7.77;6.33;;;;;;;13.02;42.29;99580.66;10403749;28;20232;-71
2023/04/07 01:44:53;;;;;;;7.70;6.17;;;;;;;11.39;44.17;99513.41;10409711;28;20666;-71
2023/04/07 01:49:59;;;;;;;8.10;6.50;;;;;;;11.23;44.70;99518.03;10416571;28;20227;-71
2023/04/07 01:55:03;;;;;;;7.10;6.40;;;;;;;11.51;44.78;99533.25;10410155;28;20208;-71
2023/04/07 02:00:05;;;;;;;7.57;5.97;;;;;;;11.56;44.71;99538.03;10414818;28;20627;-71
2023/04/07 02:05:11;;;;;;;6.53;5.90;;;;;;;11.18;44.92;99517.78;10404449;28;21171;-72
2023/04/07 02:10:16;;;;;;;8.97;5.40;;;;;;;10.89;45.87;99540.22;10420325;28;20335;-72
2023/04/07 02:15:18;;;;;;;6.63;5.77;;;;;;;11.36;44.86;99511.13;10410083;28;20208;-71
2023/04/07 02:20:21;;;;;;;6.90;6.20;;;;;;;11.85;44.09;99526.25;10394843;28;20446;-72
2023/04/07 02:25:27;;;;;;;6.53;5.47;;;;;;;10.44;46.13;99500.22;10409511;28;20312;-71
2023/04/07 02:30:29;;;;;;;6.60;5.40;;;;;;;10.31;45.44;99457.31;10412558;28;20232;-71
2023/04/07 02:35:31;;;;;;;5.93;5.33;;;;;;;10.73;46.17;99514.53;10406160;28;20203;-71
2023/04/07 02:40:32;;;;;;;7.10;5.80;;;;;;;10.79;46.33;99502.25;10404814;23;20243;-39
2023/04/07 02:45:34;;;;;;;8.10;5.80;;;;;;;9.00;48.76;99454.41;10387525;28;21060;-38
2023/04/07 02:50:36;;;;;;;7.17;6.27;;;;;;;10.22;48.16;99496.69;10352443;28;20237;-37
2023/04/07 02:55:38;;;;;;;7.63;6.60;;;;;;;10.70;46.84;99483.59;10343304;28;20219;-38
2023/04/07 03:00:39;;;;;;;8.10;6.97;;;;;;;11.48;46.03;99512.22;10342487;28;20236;-37
2023/04/07 03:05:41;;;;;;;7.73;6.60;;;;;;;11.70;44.87;99521.03;10341692;28;20237;-38
2023/04/07 03:10:43;;;;;;;8.63;7.20;;;;;;;11.62;44.68;99511.31;10343493;28;20224;-38
2023/04/07 03:15:45;;;;;;;7.07;6.23;;;;;;;10.99;45.76;99529.19;10338014;28;20203;-38
2023/04/07 03:20:47;;;;;;;10.20;6.77;;;;;;;11.27;45.21;99505.06;10336682;28;20240;-37
2023/04/07 03:25:49;;;;;;;8.43;6.07;;;;;;;11.36;45.00;99503.91;10345826;28;20643;-38
2023/04/07 03:30:50;;;;;;;10.53;7.20;;;;;;;11.41;44.79;99498.78;10343606;28;20213;-38
2023/04/07 03:35:52;;;;;;;6.80;6.07;;;;;;;10.88;45.35;99498.38;10342747;28;20243;-38
2023/04/07 03:40:54;;;;;;;7.73;6.27;;;;;;;11.90;43.87;99529.16;10350921;28;20216;-38
2023/04/07 03:45:56;;;;;;;7.93;6.77;;;;;;;12.09;43.32;99556.28;10350286;28;20260;-37
2023/04/07 03:50:58;;;;;;;7.37;6.57;;;;;;;11.61;43.84;99528.38;10344190;28;20221;-38
2023/04/07 03:56:00;;;;;;;7.33;6.63;;;;;;;11.95;43.26;99536.63;10348007;28;20324;-37
2023/04/07 04:01:02;;;;;;;7.60;6.80;;;;;;;10.65;45.08;99474.50;10359978;28;20202;-38
2023/04/07 04:06:04;;;;;;;7.33;6.57;;;;;;;11.25;44.17;99502.59;10345808;28;20241;-38
2023/04/07 04:11:06;;;;;;;7.53;6.83;;;;;;;11.19;44.86;99503.38;10352085;28;20208;-38
2023/04/07 04:16:08;;;;;;;10.13;7.43;;;;;;;10.97;44.88;99489.22;10350738;28;20691;-37
2023/04/07 04:21:10;;;;;;;7.13;6.30;;;;;;;11.11;44.24;99492.81;10350933;28;20794;-38
2023/04/07 04:26:11;;;;;;;9.23;7.13;;;;;;;11.62;43.98;99522.03;10359548;28;20252;-38
2023/04/07 04:31:13;;;;;;;8.50;7.50;;;;;;;9.80;46.39;99444.78;10345268;28;20685;-38
2023/04/07 04:36:15;;;;;;;7.33;6.57;;;;;;;10.84;45.77;99505.16;10351731;28;20229;-38
2023/04/07 04:41:17;;;;;;;8.93;6.80;;;;;;;9.40;47.60;99455.00;10347178;28;20240;-38
2023/04/07 04:46:18;;;;;;;9.00;7.00;;;;;;;9.80;47.26;99484.06;10352557;28;20230;-38
2023/04/07 04:51:20;;;;;;;7.70;6.70;;;;;;;9.84;47.35;99472.84;10345944;28;20969;-39
2023/04/07 04:56:22;;;;;;;7.63;6.77;;;;;;;10.37;46.41;99495.84;10353840;28;20225;-38
2023/04/07 05:01:24;;;;;;;8.97;7.03;;;;;;;10.70;45.95;99490.81;10353056;28;20201;-38
2023/04/07 05:06:26;;;;;;;8.60;7.00;;;;;;;11.12;45.04;99523.09;10344793;28;20240;-38
2023/04/07 05:11:28;;;;;;;9.13;7.27;;;;;;;10.70;45.27;99485.47;10350198;28;20209;-38
2023/04/07 05:16:30;;;;;;;9.17;7.30;;;;;;;10.96;45.59;99530.38;10344733;28;20229;-37
2023/04/07 05:21:31;;;;;;;10.37;7.43;;;;;;;10.92;45.72;99523.78;10343567;28;20212;-38
2023/04/07 05:26:33;;;;;;;10.07;8.27;;;;;;;11.44;44.32;99546.63;10346882;28;20707;-38
2023/04/07 05:31:36;;;;;;;9.03;8.13;;;;;;;12.24;43.56;99581.09;10351902;28;20221;-38
2023/04/07 05:36:38;;;;;;;14.97;10.80;;;;;;;10.46;46.18;99489.34;10345269;28;21029;-38
2023/04/07 05:41:40;;;;;;;12.33;9.73;;;;;;;11.09;45.20;99518.16;10344580;28;20217;-38
2023/04/07 05:46:41;;;;;;;11.23;9.27;;;;;;;10.84;45.68;99505.16;10342226;28;20237;-38
2023/04/07 05:51:43;;;;;;;10.20;9.00;;;;;;;11.90;45.14;99560.53;10349427;28;20228;-38
2023/04/07 05:56:47;;;;;;;11.90;10.03;;;;;;;13.55;41.84;99561.06;10357418;28;20225;-38
2023/04/07 06:01:48;;;;;;;10.97;8.83;;;;;;;13.10;42.70;99550.94;10338299;28;20237;-38
2023/04/07 06:06:53;;;;;;;12.87;10.63;;;;;;;14.15;41.20;99565.47;10361538;28;20609;-38
2023/04/07 06:11:55;;;;;;;15.97;13.00;;;;;;;12.65;43.16;99494.31;10336770;28;20731;-38
2023/04/07 06:16:57;;;;;;;11.27;9.13;;;;;;;9.46;50.39;99517.50;10359543;28;20740;-38
2023/04/07 06:21:59;;;;;;;12.40;9.60;;;;;;;11.13;47.39;99501.47;10337773;28;20217;-38
2023/04/07 06:27:02;;;;;;;9.10;8.20;;;;;;;12.43;44.37;99477.53;10351500;28;20238;-37
2023/04/07 06:32:05;;;;;;;10.53;8.60;;;;;;;11.33;46.92;99495.44;10340450;28;20213;-37
2023/04/07 06:37:07;;;;;;;11.13;9.40;;;;;;;11.60;46.50;99457.03;10340429;28;20252;-38
2023/04/07 06:42:09;;;;;;;10.63;8.73;;;;;;;12.27;45.05;99473.38;10344008;28;20820;-37
2023/04/07 06:47:11;;;;;;;9.80;8.80;;;;;;;12.19;45.47;99485.13;10348766;28;20332;-38
2023/04/07 06:52:12;;;;;;;12.37;9.37;;;;;;;13.52;42.64;99536.47;10338598;28;20221;-38
2023/04/07 06:57:14;;;;;;;10.37;8.73;;;;;;;13.89;43.05;99544.84;10349369;28;20229;-38
2023/04/07 07:02:16;;;;;;;10.50;8.33;;;;;;;12.01;46.35;99500.94;10342688;28;20213;-38
2023/04/07 07:07:18;;;;;;;10.73;8.83;;;;;;;12.14;45.02;99435.78;10344559;28;20233;-39
2023/04/07 07:12:20;;;;;;;7.23;5.93;;;;;;;12.47;44.34;99456.50;10345041;28;20726;-38
2023/04/07 07:17:21;;;;;;;9.10;6.80;;;;;;;11.90;46.01;99445.22;10341595;28;20221;-38
2023/04/07 07:22:23;;;;;;;6.60;5.90;;;;;;;10.97;46.83;99422.28;10352777;28;20240;-37
2023/04/07 07:27:25;;;;;;;7.33;6.17;;;;;;;11.10;48.05;99499.19;10357612;28;20247;-38
2023/04/07 07:32:27;;;;;;;7.47;5.83;;;;;;;10.60;48.08;99501.84;10352964;28;20202;-46
2023/04/07 07:37:29;;;;;;;6.73;5.57;;;;;;;9.73;49.59;99439.38;10352518;28;20228;-37
2023/04/07 07:42:31;;;;;;;6.87;6.13;;;;;;;10.41;49.14;99483.72;10348802;28;20217;-38
2023/04/07 07:47:33;;;;;;;7.87;5.93;;;;;;;13.11;44.79;99511.47;10350045;28;20235;-38
2023/04/07 07:52:35;;;;;;;7.40;6.10;;;;;;;12.88;45.57;99490.41;10353218;28;20210;-38
2023/04/07 07:57:36;;;;;;;7.77;6.97;;;;;;;13.93;43.55;99538.81;10345157;28;20226;-38
2023/04/07 08:02:38;;;;;;;10.83;7.63;;;;;;;14.08;43.74;99540.44;10354006;28;20209;-38
2023/04/07 08:07:41;;;;;;;8.50;7.53;;;;;;;14.39;42.88;99543.19;10352153;28;20234;-39
2023/04/07 08:12:43;;;;;;;8.90;7.50;;;;;;;14.12;43.37;99539.81;10349261;28;20401;-38
2023/04/07 08:17:45;;;;;;;9.53;8.50;;;;;;;14.50;42.84;99532.78;10350129;28;20311;-38
2023/04/07 08:22:47;;;;;;;8.37;7.53;;;;;;;14.61;42.39;99526.72;10356206;28;20271;-38
2023/04/07 08:27:49;;;;;;;9.77;8.13;;;;;;;11.89;47.09;99430.16;10353495;28;20709;-38
2023/04/07 08:32:51;;;;;;;8.53;7.63;;;;;;;14.17;44.16;99501.47;10352390;28;20253;-38
2023/04/07 08:37:53;;;;;;;8.43;7.57;;;;;;;13.85;43.85;99474.50;10342210;28;20284;-38
2023/04/07 08:42:59;;;;;;;7.90;7.10;;;;;;;14.35;43.27;99500.78;10342295;28;20216;-39
2023/04/07 08:48:08;;;;;;;10.93;6.90;;;;;;;13.28;44.40;99447.41;10351887;28;20236;-41
2023/04/07 08:53:13;;;;;;;11.20;7.53;;;;;;;14.14;43.74;99458.88;10339524;28;20837;-39
2023/04/07 08:58:15;;;;;;;7.90;6.53;;;;;;;13.50;43.62;99426.47;10347672;28;20359;-38
2023/04/07 09:03:18;;;;;;;10.77;8.10;;;;;;;14.48;43.13;99443.34;10346875;28;20686;-39
2023/04/07 09:08:20;;;;;;;8.40;7.57;;;;;;;13.31;45.39;99446.97;10343823;28;21163;-38
2023/04/07 09:13:23;;;;;;;8.33;6.93;;;;;;;14.81;43.55;99483.44;10346588;28;20210;-39
2023/04/07 09:18:27;;;;;;;11.10;8.23;;;;;;;13.50;44.77;99412.19;10343921;28;20222;-39
2023/04/07 09:23:39;;;;;;;11.10;7.90;;;;;;;14.49;43.61;99461.97;10340377;28;20201;-40
2023/04/07 09:28:42;;;;;;;9.70;8.03;;;;;;;12.93;46.02;99453.84;10334179;28;20251;-39
2023/04/07 09:33:43;;;;;;;8.03;7.23;;;;;;;14.20;45.16;99449.94;10342222;28;20686;-38
2023/04/07 09:38:45;;;;;;;10.53;6.87;;;;;;;15.24;43.57;99487.25;10342797;28;20236;-38
2023/04/07 09:43:47;;;;;;;7.60;6.67;;;;;;;13.58;44.95;99457.66;10336433;28;20210;-38
2023/04/07 09:49:06;;;;;;;7.43;5.80;;;;;;;11.85;47.07;99439.66;10342760;28;20690;-39
2023/04/07 09:54:09;;;;;;;7.37;6.17;;;;;;;12.11;47.50;99473.75;10339067;28;20860;-38
2023/04/07 09:59:11;;;;;;;7.67;6.17;;;;;;;14.09;44.86;99440.69;10337860;28;20637;-39
2023/04/07 10:04:12;;;;;;;9.70;6.53;;;;;;;14.36;43.88;99459.38;10339250;28;20215;-38
2023/04/07 10:09:16;;;;;;;9.20;6.73;;;;;;;14.09;44.65;99458.69;10345007;28;20238;-39
2023/04/07 10:14:20;;;;;;;8.50;5.70;;;;;;;15.13;42.60;99489.66;10330211;28;20985;-39
2023/04/07 10:19:23;;;;;;;8.13;5.40;;;;;;;14.12;43.57;99442.13;10340784;28;20213;-39
2023/04/07 10:24:49;;;;;;;6.23;5.20;;;;;;;13.85;43.75;99416.16;10344896;28;20213;-39
2023/04/07 10:29:52;;;;;;;9.70;6.30;;;;;;;13.61;43.88;99412.34;10342826;28;20636;-39
2023/04/07 10:34:56;;;;;;;8.90;6.60;;;;;;;14.62;43.04;99468.28;10339299;28;20201;-39
2023/04/07 10:40:20;;;;;;;7.60;5.20;;;;;;;15.48;41.50;99445.91;10335480;28;20249;-38
2023/04/07 10:45:51;;;;;;;6.20;4.43;;;;;;;16.17;41.07;99480.78;10337461;28;20895;-39
2023/04/07 10:51:05;;;;;;;6.10;4.40;;;;;;;15.77;40.97;99448.09;10343897;28;20279;-39
2023/04/07 10:56:07;;;;;;;8.37;5.00;;;;;;;15.94;40.35;99410.53;10339482;28;20416;-39
2023/04/07 11:06:31;;;;;;;5.00;4.00;;;;;;;12.51;47.39;99557.06;10530886;27;2005789;-73
2023/04/07 11:11:38;;;;;;;6.47;4.57;;;;;;;12.55;46.62;99513.53;10566708;28;20225;-73
2023/04/07 11:16:42;;;;;;;4.90;4.17;;;;;;;12.71;46.47;99522.22;10555282;28;20437;-72
2023/04/07 11:21:43;;;;;;;10.60;4.83;;;;;;;12.87;45.32;99478.84;10570697;28;20668;-70
2023/04/07 11:26:45;;;;;;;6.60;3.80;;;;;;;13.71;44.32;99499.81;10568118;28;20209;-70
2023/04/07 11:31:50;;;;;;;5.37;4.57;;;;;;;14.75;42.89;99476.25;10561603;28;20233;-73
2023/04/07 11:36:52;;;;;;;10.67;4.60;;;;;;;14.02;44.33;99478.38;10566338;28;20202;-70
2023/04/07 11:41:53;;;;;;;6.33;4.07;;;;;;;14.83;42.97;99480.56;10567878;28;20228;-70
2023/04/07 11:46:57;;;;;;;7.80;4.83;;;;;;;13.75;43.65;99437.31;10549772;28;20226;-72
2023/04/07 11:52:05;;;;;;;4.83;3.53;;;;;;;13.39;43.62;99486.25;10565770;27;20222;-70
2023/04/07 11:57:11;;;;;;;6.37;3.33;;;;;;;13.48;43.50;99490.38;10544674;27;20620;-70
2023/04/07 12:02:30;;;;;;;8.33;3.67;;;;;;;14.55;42.91;99487.19;10567701;28;20659;-72
2023/04/07 12:07:32;;;;;;;4.93;3.10;;;;;;;12.77;44.37;99515.19;10558126;27;20947;-69
2023/04/07 12:12:33;;;;;;;6.07;3.50;;;;;;;14.53;42.06;99482.00;10554103;28;20202;-72
2023/04/07 12:17:35;;;;;;;6.93;2.90;;;;;;;12.72;43.09;99472.84;10538970;28;20234;-70
2023/04/07 12:22:37;;;;;;;5.97;3.30;;;;;;;13.79;42.74;99468.13;10535343;28;20248;-72
2023/04/07 12:27:38;;;;;;;4.90;2.50;;;;;;;12.24;43.15;99462.25;10535935;28;20237;-72
2023/04/07 12:32:44;;;;;;;4.00;3.03;;;;;;;13.44;42.54;99479.19;10530104;28;20230;-72
2023/04/07 12:37:46;;;;;;;3.50;3.20;;;;;;;11.73;43.75;99408.06;10534823;28;20230;-73
2023/04/07 12:42:50;;;;;;;4.70;2.73;;;;;;;11.80;45.43;99462.50;10533347;28;20231;-72
2023/04/07 12:47:52;;;;;;;6.23;3.33;;;;;;;11.35;48.26;99471.94;10520656;28;20724;-70
2023/04/07 12:52:54;;;;;;;5.00;2.70;;;;;;;11.72;45.19;99521.66;10530613;28;20257;-69
2023/04/07 12:57:55;;;;;;;6.13;3.10;;;;;;;12.64;46.45;99479.25;10536187;28;20479;-73
2023/04/07 13:02:57;;;;;;;5.13;4.17;;;;;;;11.35;49.01;99504.09;10536368;28;20237;-73
2023/04/07 13:07:59;;;;;;;5.77;4.20;;;;;;;11.77;47.94;99449.50;10534720;28;20303;-72
2023/04/07 13:13:01;;;;;;;4.50;3.30;;;;;;;10.89;51.48;99519.63;10533702;28;20632;-72
2023/04/07 13:18:03;;;;;;;7.23;3.83;;;;;;;10.92;51.19;99523.78;10534866;28;20241;-72
2023/04/07 13:23:05;;;;;;;5.10;3.40;;;;;;;11.78;49.65;99512.00;10535630;28;20238;-71
2023/04/07 13:28:10;;;;;;;6.13;3.97;;;;;;;12.21;48.05;99458.09;10520817;28;20262;-72
2023/04/07 13:33:12;;;;;;;6.53;4.07;;;;;;;11.07;51.32;99529.03;10528605;28;20202;-72
2023/04/07 13:38:14;;;;;;;15.23;10.30;;;;;;;9.66;53.36;99451.81;10535584;28;20618;-72
2023/04/07 13:43:17;;;;;;;4.03;3.47;;;;;;;10.75;52.48;99527.72;10535520;28;20599;-72
2023/04/07 13:48:19;;;;;;;5.20;3.90;;;;;;;10.56;52.04;99487.16;10540748;28;20226;-72
2023/04/07 13:53:21;;;;;;;4.67;3.90;;;;;;;11.23;51.63;99477.03;10530721;28;20213;-71
2023/04/07 13:58:24;;;;;;;6.97;4.27;;;;;;;9.42;54.44;99434.25;10513538;28;20603;-72
2023/04/07 14:03:26;;;;;;;4.23;3.40;;;;;;;9.62;53.54;99485.28;10537152;28;20385;-71
2023/04/07 14:08:28;;;;;;;4.63;3.73;;;;;;;11.40;50.26;99531.13;10527516;28;20229;-71
2023/04/07 14:13:30;;;;;;;5.13;3.73;;;;;;;13.61;47.57;99543.25;10537032;28;20191;-72
2023/04/07 14:18:32;;;;;;;4.57;3.93;;;;;;;12.76;47.56;99492.88;10533058;28;20225;-71
2023/04/07 14:23:34;;;;;;;6.60;4.27;;;;;;;11.22;50.95;99537.81;10513903;28;20444;-72
2023/04/07 14:28:38;;;;;;;5.70;3.70;;;;;;;13.53;48.39;99564.97;10519170;28;20236;-71
2023/04/07 14:33:44;;;;;;;6.70;5.47;;;;;;;14.13;47.43;99565.66;10531485;28;20209;-71
2023/04/07 14:38:46;;;;;;;8.70;6.93;;;;;;;13.20;49.69;99534.41;10532630;28;20229;-71
2023/04/07 14:43:51;;;;;;;6.77;4.97;;;;;;;11.70;52.35;99563.91;10536641;28;20230;-71
2023/04/07 14:48:56;;;;;;;5.87;3.93;;;;;;;12.86;49.99;99536.25;10532709;28;20287;-71
2023/04/07 14:53:58;;;;;;;5.27;4.30;;;;;;;14.19;47.38;99577.47;10528125;28;20199;-71
2023/04/07 14:58:59;;;;;;;9.57;6.93;;;;;;;14.03;47.48;99571.47;10530410;28;20723;-71
2023/04/07 15:04:01;;;;;;;13.60;9.63;;;;;;;14.86;46.72;99604.03;10513932;28;20230;-71
2023/04/07 15:09:03;;;;;;;5.07;4.53;;;;;;;13.21;49.02;99532.53;10531365;28;20712;-71
2023/04/07 15:14:05;;;;;;;8.03;4.87;;;;;;;12.30;51.33;99541.88;10528589;28;20210;-71
2023/04/07 15:19:07;;;;;;;8.03;5.80;;;;;;;10.97;51.77;99547.28;10532837;28;20233;-71
2023/04/07 15:24:08;;;;;;;9.00;6.23;;;;;;;12.67;48.44;99553.16;10534388;28;20230;-70
2023/04/07 15:29:10;;;;;;;6.13;4.33;;;;;;;12.88;48.18;99587.91;10536315;28;20241;-71
2023/04/07 15:34:12;;;;;;;4.37;3.70;;;;;;;11.77;50.36;99563.94;10524847;28;20320;-71
2023/04/07 15:39:15;;;;;;;3.60;3.30;;;;;;;15.01;45.77;99650.38;10537482;28;20234;-71
2023/04/07 15:44:17;;;;;;;13.53;9.63;;;;;;;14.28;46.82;99602.25;10511232;28;20228;-72
2023/04/07 15:49:21;;;;;;;7.40;4.37;;;;;;;13.29;48.98;99581.56;10529237;28;20783;-72
2023/04/07 15:54:26;;;;;;;4.67;3.30;;;;;;;14.02;48.26;99623.63;10541226;28;20395;-71
2023/04/07 15:59:29;;;;;;;8.47;4.67;;;;;;;13.69;47.91;99591.44;10539187;28;20568;-72
2023/04/07 16:04:31;;;;;;;6.17;4.03;;;;;;;14.28;46.73;99621.09;10516091;28;20222;-72
2023/04/07 16:09:33;;;;;;;4.20;3.70;;;;;;;14.82;45.61;99644.06;10535590;28;20305;-72
2023/04/07 16:14:35;;;;;;;6.23;4.73;;;;;;;15.41;44.56;99651.97;10540014;28;20240;-71
2023/04/07 16:19:36;;;;;;;4.20;3.60;;;;;;;14.92;45.64;99620.16;10517778;28;20651;-72
2023/04/07 16:24:38;;;;;;;7.87;5.30;;;;;;;14.03;47.91;99576.03;10521002;28;20274;-72
2023/04/07 16:29:40;;;;;;;6.33;3.77;;;;;;;11.27;52.72;99593.44;10534015;28;20475;-72
2023/04/07 16:34:41;;;;;;;3.50;3.20;;;;;;;14.89;46.82;99630.56;10533737;28;20199;-72
2023/04/07 16:39:43;;;;;;;5.80;3.30;;;;;;;14.34;47.17;99618.38;10538338;28;20480;-72
2023/04/07 16:44:45;;;;;;;4.17;3.47;;;;;;;14.68;47.21;99635.22;10540845;28;20230;-71
2023/04/07 16:49:46;;;;;;;3.13;2.83;;;;;;;12.62;50.01;99582.47;10523903;28;20485;-72
2023/04/07 16:54:49;;;;;;;3.10;2.70;;;;;;;11.65;51.86;99593.16;10525888;28;20211;-72
2023/04/07 16:59:51;;;;;;;4.43;3.70;;;;;;;11.74;52.08;99624.16;10535933;28;20289;-71
2023/04/07 17:04:53;;;;;;;4.97;3.90;;;;;;;12.75;49.75;99577.13;10532286;28;20230;-72
2023/04/07 17:09:54;;;;;;;5.50;4.30;;;;;;;12.23;51.70;99616.16;10533071;28;20233;-71
2023/04/07 17:14:56;;;;;;;8.27;6.03;;;;;;;11.92;52.50;99625.50;10533411;28;20728;-72
2023/04/07 17:19:58;;;;;;;8.13;5.13;;;;;;;13.78;48.96;99643.94;10533938;28;20230;-71
2023/04/07 17:25:00;;;;;;;8.27;5.00;;;;;;;12.33;51.69;99678.31;10529347;28;20762;-72
2023/04/07 17:30:02;;;;;;;5.27;4.60;;;;;;;13.04;50.38;99644.94;10526380;28;20855;-71
2023/04/07 17:35:04;;;;;;;6.67;5.80;;;;;;;15.12;45.55;99686.59;10512708;28;20206;-71
2023/04/07 17:40:07;;;;;;;8.17;5.97;;;;;;;14.15;47.65;99681.16;10535772;28;20629;-72
2023/04/07 17:45:09;;;;;;;7.10;6.37;;;;;;;15.31;45.72;99730.63;10515995;28;20230;-71
2023/04/07 17:50:11;;;;;;;9.57;7.13;;;;;;;13.25;49.09;99687.75;10533166;28;20366;-72
2023/04/07 17:55:13;;;;;;;6.53;4.53;;;;;;;12.03;51.00;99670.53;10529765;28;20261;-71
2023/04/07 18:00:14;;;;;;;7.13;4.50;;;;;;;12.07;50.80;99674.47;10534720;28;20244;-71
2023/04/07 18:05:16;;;;;;;6.20;4.60;;;;;;;12.83;49.81;99697.78;10529925;28;20245;-73
2023/04/07 18:10:18;;;;;;;6.30;3.97;;;;;;;12.19;50.88;99685.47;10533376;28;20723;-73
2023/04/07 18:15:19;;;;;;;4.57;3.80;;;;;;;11.52;52.91;99698.34;10534348;28;20203;-73
2023/04/07 18:20:21;;;;;;;4.57;4.10;;;;;;;13.10;50.32;99743.53;10523554;28;20225;-73
2023/04/07 18:25:23;;;;;;;4.57;4.13;;;;;;;12.65;50.13;99702.88;10531224;28;20333;-72
2023/04/07 18:30:25;;;;;;;4.07;3.70;;;;;;;11.99;51.25;99733.63;10529796;28;20234;-73
2023/04/07 18:35:27;;;;;;;5.10;4.60;;;;;;;13.46;48.67;99762.06;10526705;28;20233;-73
2023/04/07 18:40:31;;;;;;;3.97;3.10;;;;;;;12.02;50.61;99743.97;10536751;28;20228;-70
2023/04/07 18:45:35;;;;;;;4.77;3.87;;;;;;;13.36;48.61;99793.88;10524587;28;20259;-73
2023/04/07 18:50:37;;;;;;;4.93;4.13;;;;;;;12.76;48.52;99749.81;10512542;28;20260;-73
2023/04/07 18:55:39;;;;;;;5.93;4.47;;;;;;;13.37;47.91;99789.31;10532066;28;20205;-73
2023/04/07 19:00:41;;;;;;;4.23;3.83;;;;;;;12.76;48.64;99784.72;10535437;28;20630;-70
2023/04/07 19:05:43;;;;;;;9.70;5.33;;;;;;;14.85;45.19;99869.09;10532530;28;20791;-72
2023/04/07 19:10:48;;;;;;;5.17;4.63;;;;;;;12.70;49.80;99813.16;10535815;28;20238;-72
2023/04/07 19:15:51;;;;;;;8.37;5.70;;;;;;;12.00;50.41;99792.44;10537941;28;20657;-72
2023/04/07 19:20:54;;;;;;;5.63;4.47;;;;;;;11.43;51.64;99771.88;10529473;28;20246;-72
2023/04/07 19:25:55;;;;;;;4.50;3.93;;;;;;;13.34;48.22;99843.47;10536491;28;20234;-72
2023/04/07 19:30:57;;;;;;;4.67;4.17;;;;;;;12.72;49.77;99859.44;10531839;28;20223;-72
2023/04/07 19:36:00;;;;;;;4.63;3.93;;;;;;;12.82;49.47;99830.41;10544234;28;20379;-72
2023/04/07 19:41:02;;;;;;;4.83;4.40;;;;;;;12.01;50.67;99828.13;10543003;28;20229;-71
2023/04/07 19:46:05;;;;;;;4.83;4.43;;;;;;;12.46;49.49;99847.47;10537183;28;20306;-72
2023/04/07 19:51:06;;;;;;;5.00;4.27;;;;;;;12.68;49.47;99850.94;10536756;28;20594;-72
2023/04/07 19:56:09;;;;;;;6.23;5.10;;;;;;;13.58;48.15;99887.78;10533296;28;20207;-72
2023/04/07 20:01:17;;;;;;;6.33;5.10;;;;;;;13.13;48.56;99880.16;10532860;28;20902;-72
2023/04/07 20:06:23;;;;;;;6.27;4.90;;;;;;;12.94;49.04;99865.59;10533756;28;20236;-73
2023/04/07 20:11:25;;;;;;;7.23;5.20;;;;;;;12.72;49.48;99867.50;10538530;28;20709;-72
2023/04/07 20:16:30;;;;;;;7.47;5.30;;;;;;;13.20;48.96;99893.63;10532970;28;20509;-72
2023/04/07 20:21:32;;;;;;;6.27;5.63;;;;;;;12.74;49.99;99882.41;10538124;28;20258;-72
2023/04/07 20:26:34;;;;;;;6.60;5.60;;;;;;;11.68;51.87;99844.72;10544188;28;20750;-73
2023/04/07 20:31:35;;;;;;;6.40;5.70;;;;;;;12.59;49.70;99872.78;10533587;28;20242;-72
2023/04/07 20:36:37;;;;;;;6.80;5.20;;;;;;;12.35;50.01;99856.91;10534970;28;20523;-72
2023/04/07 20:41:41;;;;;;;6.47;5.77;;;;;;;12.60;49.91;99886.00;10536397;28;20587;-72
2023/04/07 20:46:44;;;;;;;7.83;6.20;;;;;;;12.21;50.68;99867.72;10531209;28;20226;-72
2023/04/07 20:51:46;;;;;;;7.80;6.80;;;;;;;14.03;48.13;99955.38;10533201;28;20229;-72
2023/04/07 20:56:48;;;;;;;7.63;6.10;;;;;;;13.29;48.50;99927.38;10515494;28;20863;-72
2023/04/07 21:01:50;;;;;;;6.83;5.67;;;;;;;14.47;46.60;99980.94;10541429;28;20777;-71
2023/04/07 21:06:51;;;;;;;6.87;5.93;;;;;;;14.90;45.80;99977.88;10529952;28;20236;-72
2023/04/07 21:11:53;;;;;;;11.23;9.43;;;;;;;15.10;45.31;99977.00;10535672;28;20234;-72
2023/04/07 21:16:55;;;;;;;9.87;8.60;;;;;;;15.57;44.92;99968.84;10512441;28;20217;-72
2023/04/07 21:21:56;;;;;;;19.63;13.27;;;;;;;15.62;44.94;99952.84;10529463;28;20233;-72
2023/04/07 21:26:59;;;;;;;18.23;14.13;;;;;;;15.59;45.02;99946.03;10531506;28;20309;-72
2023/04/07 21:32:01;;;;;;;8.77;7.07;;;;;;;14.62;46.49;99886.50;10530341;28;20226;-72
2023/04/07 21:37:03;;;;;;;7.83;7.03;;;;;;;15.36;45.26;99921.41;10535723;28;20209;-72
2023/04/07 21:42:04;;;;;;;12.27;8.80;;;;;;;14.31;46.73;99857.53;10527832;28;20249;-72
2023/04/07 21:47:06;;;;;;;11.93;8.30;;;;;;;15.05;45.81;99902.22;10535056;28;20225;-72
2023/04/07 21:52:08;;;;;;;9.87;7.37;;;;;;;14.57;46.08;99872.84;10528524;28;20224;-72
2023/04/07 21:57:10;;;;;;;8.50;6.97;;;;;;;13.66;47.85;99869.59;10538216;28;20217;-71
2023/04/07 22:02:12;;;;;;;8.63;7.53;;;;;;;14.30;46.71;99880.09;10535644;28;20294;-72
2023/04/07 22:07:14;;;;;;;12.80;9.90;;;;;;;13.46;48.16;99856.13;10527721;28;20242;-72
2023/04/07 22:12:15;;;;;;;13.77;9.70;;;;;;;14.03;47.33;99871.97;10530797;28;20217;-72
2023/04/07 22:17:17;;;;;;;10.13;8.60;;;;;;;14.12;47.53;99886.94;10532198;28;20206;-72
2023/04/07 22:22:18;;;;;;;13.47;8.63;;;;;;;14.33;46.38;99891.28;10511059;28;20207;-72
2023/04/07 22:27:20;;;;;;;10.03;7.20;;;;;;;15.12;45.15;99919.19;10527309;28;20236;-72
2023/04/07 22:32:22;;;;;;;7.70;6.50;;;;;;;13.34;48.13;99865.78;10530612;28;20400;-72
2023/04/07 22:37:23;;;;;;;7.97;6.13;;;;;;;14.60;46.89;99912.81;10524219;28;20201;-72
2023/04/07 22:42:25;;;;;;;7.13;6.00;;;;;;;13.98;47.02;99874.44;10531628;28;20217;-72
2023/04/07 22:47:27;;;;;;;6.03;5.43;;;;;;;13.45;47.40;99846.41;10536067;28;20294;-72
2023/04/07 22:52:28;;;;;;;6.37;4.73;;;;;;;14.99;45.51;99921.91;10532675;28;21054;-72
2023/04/07 22:57:30;;;;;;;9.03;5.97;;;;;;;15.09;45.22;99930.38;10531577;28;20447;-72
2023/04/07 23:02:31;;;;;;;5.90;5.27;;;;;;;12.88;48.58;99844.88;10531726;28;20217;-72
2023/04/07 23:07:33;;;;;;;9.87;6.30;;;;;;;13.71;47.70;99892.41;10528428;28;20232;-72
2023/04/07 23:12:36;;;;;;;7.70;6.90;;;;;;;12.99;47.88;99852.38;10523566;28;20309;-72
2023/04/07 23:17:38;;;;;;;7.10;5.70;;;;;;;13.07;48.76;99880.94;10532287;28;20214;-72
2023/04/07 23:22:40;;;;;;;7.23;6.03;;;;;;;15.25;45.25;99947.13;10530931;28;20217;-72
2023/04/07 23:27:42;;;;;;;8.70;5.70;;;;;;;15.38;44.71;99955.19;10532333;28;20807;-72
2023/04/07 23:32:43;;;;;;;7.37;5.60;;;;;;;15.39;44.57;99959.56;10535239;28;20293;-72